Aeroporto :
LOGIN :

Iscrizione | Disclaimer

   EN    FR    IT 

 










Sommario :    VFR   VFR Marginale   IFR   IFR Intensivo   IFR Molto Intensivo
Visibilità : 
Base nubi : 
>= 8 km
>= 3000ft
5 / 8 km
1000 / 3000 ft
1500m / 5 km
500 / 1000 ft
800 / 1500m
200 / 500 ft
< 800m
< 200 ft
Simboli :   Temporali  Nebbia  Neve Forte  Precipitazioni Forti  Vento > 20 kt
SIGMETs :   Varie  Temporali  Ghiacco  Turbolenza  Onda orograficha  Ceneri Vulcaniche






- Altitudine del aeroporto : 49 ft
- Codice IATA : AOI


LIPY - Ancona Falconara

ULTIMO METAR :
  • 020650Z AUTO 17002KT 9999 BKN063/// OVC100/// 11/08 Q1009

METARs OBSOLETI :
  • 020620Z AUTO 19003KT 160V220 9999 BKN058/// BKN110/// 10/09 Q1008
  • 020550Z AUTO 22004KT 9999 BKN050/// BKN110/// 10/09 Q1008
  • 020520Z AUTO 20003KT 9999 BKN057/// BKN071/// 10/08 Q1008
  • 020450Z AUTO 20003KT 9999 OVC057/// 10/09 Q1008
  • 020420Z AUTO 22003KT 9999 OVC058/// 10/09 Q1008
  • 012050Z AUTO VRB02KT 9999 OVC069/// 12/08 Q1007
  • 020350Z AUTO VRB02KT 9999 OVC057/// 10/08 Q1007
  • 020320Z AUTO 17002KT 9999 -RA OVC057/// 10/08 Q1007
  • 020250Z AUTO VRB01KT 9999 -RA OVC056/// 10/08 Q1007
  • 020220Z AUTO VRB02KT 9999 OVC055/// 10/08 Q1007

TAF TAF LIPY
Valido dal 02 a 06 ore il 03 a 06 ore UTC


020500Z 0206/0306 VRB05KT 9999 BKN050
TEMPO 0206/0212 RA
BECMG 0208/0210 22010KT



MetMap, La meteo Aeronautica in un colpo d'occhio ! - Copyright ORBIFLY Dicembre 2007 - Disclaimer

ORBIFLY MET'MAP TEAM :

Programmazione e sviluppo : Alexandra Zaïnal
Concezione : Baudouin d'Aumeries
Supporto tecnico e logistico : Manuel Goepfert
Aiuto : Marc-Olivier Méhu
Aiuto per la traduzione : Arnaldo La Scala




FONTI E CREDITI :

   NOAA